Time;durP1;ratioP1;P1;durP2;ratioP2;P2;SDS_P1;SDS_P2;PMS_P1;PMS_P2;Temp;Humidity;BMP_temperature;BMP_pressure;BME280_temperature;BME280_humidity;BME280_pressure;Samples;Min_cycle;Max_cycle;Signal;HPM_P1;HPM_P2
2021/08/10 00:01:06;;;;;;;3.30;2.28;;;16.00;99.90;;;;;;4997870;28;20470;-71
2021/08/10 00:03:31;;;;;;;8.57;2.40;;;16.00;99.90;;;;;;5003851;28;20022;-72
2021/08/10 00:05:57;;;;;;;4.70;2.80;;;15.90;99.90;;;;;;4999811;28;20041;-70
2021/08/10 00:08:23;;;;;;;3.05;2.30;;;15.90;99.90;;;;;;4998526;28;20026;-72
2021/08/10 00:10:50;;;;;;;6.35;2.25;;;15.80;99.90;;;;;;4998320;28;20026;-72
2021/08/10 00:13:17;;;;;;;3.75;2.45;;;15.80;99.90;;;;;;4998483;28;20049;-71
2021/08/10 00:15:43;;;;;;;5.45;2.25;;;15.80;99.90;;;;;;4996188;28;20026;-72
2021/08/10 00:18:09;;;;;;;6.63;2.45;;;15.80;99.90;;;;;;4996341;28;20037;-70
2021/08/10 00:20:35;;;;;;;3.47;2.90;;;15.70;99.90;;;;;;4995427;28;20019;-72
2021/08/10 00:23:02;;;;;;;3.50;1.90;;;15.70;99.90;;;;;;4994697;28;20026;-71
2021/08/10 00:25:28;;;;;;;2.75;2.25;;;15.70;99.90;;;;;;4995363;28;20030;-71
2021/08/10 00:27:54;;;;;;;4.18;2.13;;;15.70;99.90;;;;;;4996345;28;20018;-72
2021/08/10 00:30:20;;;;;;;4.45;2.10;;;15.70;99.90;;;;;;4995429;28;20098;-72
2021/08/10 00:32:47;;;;;;;6.05;2.67;;;15.60;99.90;;;;;;4997462;28;20030;-71
2021/08/10 00:35:12;;;;;;;7.72;2.28;;;15.60;99.90;;;;;;4997181;28;20018;-72
2021/08/10 00:37:38;;;;;;;4.63;2.42;;;15.60;99.90;;;;;;4996383;28;20038;-72
2021/08/10 00:40:04;;;;;;;8.10;2.47;;;15.60;99.90;;;;;;4996455;28;20105;-72
2021/08/10 00:42:30;;;;;;;3.67;2.60;;;15.70;99.90;;;;;;4996412;28;20089;-73
2021/08/10 00:44:55;;;;;;;6.53;2.70;;;15.70;99.90;;;;;;4995843;28;20474;-72
2021/08/10 00:47:21;;;;;;;5.22;2.40;;;15.60;99.90;;;;;;4996489;28;20029;-72
2021/08/10 00:49:46;;;;;;;4.18;2.17;;;15.60;99.90;;;;;;4995528;28;20027;-72
2021/08/10 00:52:12;;;;;;;8.68;2.50;;;15.50;99.90;;;;;;4996374;28;20023;-73
2021/08/10 00:54:38;;;;;;;5.32;2.53;;;15.50;99.90;;;;;;4995395;28;20081;-71
2021/08/10 00:57:04;;;;;;;4.47;2.83;;;15.40;99.90;;;;;;4995672;28;20014;-72
2021/08/10 00:59:29;;;;;;;4.50;2.08;;;15.40;99.90;;;;;;4995698;28;20027;-71
2021/08/10 01:01:55;;;;;;;4.65;2.40;;;15.40;99.90;;;;;;4994980;28;20474;-73
2021/08/10 01:04:21;;;;;;;6.05;2.08;;;15.30;99.90;;;;;;4992955;28;20544;-73
2021/08/10 01:07:05;;;;;;;5.68;2.53;;;15.30;99.90;;;;;;4992474;28;20030;-72
2021/08/10 01:09:48;;;;;;;9.70;3.13;;;15.30;99.90;;;;;;4991326;28;20049;-72
2021/08/10 01:12:27;;;;;;;9.30;2.75;;;15.30;99.90;;;;;;4991167;28;20057;-72
2021/08/10 01:15:11;;;;;;;4.60;2.40;;;15.30;99.90;;;;;;4992562;28;20367;-72
2021/08/10 01:17:55;;;;;;;6.72;2.28;;;15.30;99.90;;;;;;4992258;28;20387;-74
2021/08/10 01:21:03;;;;;;;2.80;2.22;;;15.20;99.90;;;;;;4991142;28;20068;-72
2021/08/10 01:23:32;;;;;;;3.55;2.42;;;15.20;99.90;;;;;;4992319;28;20034;-72
2021/08/10 01:26:26;;;;;;;4.75;2.55;;;15.20;99.90;;;;;;4992258;28;20057;-74
2021/08/10 01:29:04;;;;;;;2.92;2.42;;;15.20;99.90;;;;;;4992383;28;20033;-73
2021/08/10 01:31:38;;;;;;;4.97;2.30;;;15.10;99.90;;;;;;4994484;28;20026;-71
2021/08/10 01:34:10;;;;;;;6.20;2.45;;;15.10;99.90;;;;;;4994934;28;20037;-71
2021/08/10 01:36:39;;;;;;;3.28;2.33;;;15.10;99.90;;;;;;4994163;28;20031;-72
2021/08/10 01:39:05;;;;;;;6.13;2.33;;;15.10;99.90;;;;;;4994587;28;20041;-71
2021/08/10 01:41:32;;;;;;;2.55;2.10;;;15.00;99.90;;;;;;4994644;28;20023;-72
2021/08/10 01:44:01;;;;;;;3.67;2.58;;;15.00;99.90;;;;;;4993362;28;20031;-72
2021/08/10 01:46:27;;;;;;;4.28;2.08;;;15.00;99.90;;;;;;4994371;28;20049;-70
2021/08/10 01:48:55;;;;;;;4.57;2.83;;;15.00;99.90;;;;;;4992826;28;20389;-72
2021/08/10 01:51:25;;;;;;;5.13;2.50;;;14.90;99.90;;;;;;4994140;28;20363;-71
2021/08/10 01:53:51;;;;;;;5.63;2.53;;;14.90;99.90;;;;;;4994146;28;20167;-70
2021/08/10 01:56:18;;;;;;;2.88;2.15;;;14.80;99.90;;;;;;4994270;28;20026;-71
2021/08/10 01:58:46;;;;;;;3.65;2.38;;;14.80;99.90;;;;;;4993461;28;20034;-72
2021/08/10 02:01:12;;;;;;;3.92;2.40;;;14.80;99.90;;;;;;4994470;28;20110;-70
2021/08/10 02:03:38;;;;;;;4.32;2.47;;;14.80;99.90;;;;;;4993164;28;20066;-71
2021/08/10 02:06:05;;;;;;;2.67;2.10;;;14.90;99.90;;;;;;4994198;28;20023;-73
2021/08/10 02:08:32;;;;;;;4.85;2.50;;;14.80;99.90;;;;;;4993782;28;20161;-72
2021/08/10 02:10:58;;;;;;;5.35;2.60;;;14.80;99.90;;;;;;4993939;28;20023;-71
2021/08/10 02:13:24;;;;;;;4.55;2.17;;;14.80;99.90;;;;;;4995070;28;20092;-72
2021/08/10 02:15:52;;;;;;;2.83;2.53;;;14.80;99.90;;;;;;4993989;28;20030;-72
2021/08/10 02:18:19;;;;;;;4.13;2.58;;;14.70;99.90;;;;;;4995268;28;20037;-72
2021/08/10 02:20:48;;;;;;;3.33;2.25;;;14.70;99.90;;;;;;4995287;28;20105;-71
2021/08/10 02:23:16;;;;;;;2.92;2.25;;;14.70;99.90;;;;;;4995349;28;20026;-72
2021/08/10 02:25:44;;;;;;;5.13;2.33;;;14.70;99.90;;;;;;4993731;28;20045;-73
2021/08/10 02:28:12;;;;;;;7.00;2.40;;;14.60;99.90;;;;;;4993657;28;20442;-70
2021/08/10 02:30:43;;;;;;;4.15;2.70;;;14.60;99.90;;;;;;4995017;28;20095;-72
2021/08/10 02:33:10;;;;;;;4.85;2.60;;;14.60;99.90;;;;;;4993784;28;20022;-71
2021/08/10 02:35:36;;;;;;;5.78;2.60;;;14.60;99.90;;;;;;4994715;28;20026;-72
2021/08/10 02:38:08;;;;;;;5.25;2.67;;;14.60;99.90;;;;;;4994397;28;20030;-72
2021/08/10 02:40:36;;;;;;;2.88;2.50;;;14.60;99.90;;;;;;4995373;28;20073;-73
2021/08/10 02:43:03;;;;;;;4.82;2.53;;;14.60;99.90;;;;;;4994886;28;20443;-71
2021/08/10 02:45:33;;;;;;;3.47;2.40;;;14.60;99.90;;;;;;4993425;28;20026;-72
2021/08/10 02:48:00;;;;;;;4.37;2.63;;;14.60;99.90;;;;;;4995030;28;20026;-72
2021/08/10 02:50:30;;;;;;;4.82;2.70;;;14.60;99.90;;;;;;4993480;28;20076;-72
2021/08/10 02:52:56;;;;;;;2.58;1.83;;;14.60;99.90;;;;;;4995761;28;20374;-72
2021/08/10 02:55:22;;;;;;;3.83;2.40;;;14.60;99.90;;;;;;4993488;28;20034;-73
2021/08/10 02:58:05;;;;;;;7.03;3.47;;;14.60;99.90;;;;;;4993359;28;20022;-73
2021/08/10 03:00:37;;;;;;;2.92;2.33;;;14.50;99.90;;;;;;4993445;28;20022;-71
2021/08/10 03:03:09;;;;;;;7.57;3.92;;;14.50;99.90;;;;;;4993622;28;20018;-73
2021/08/10 03:05:36;;;;;;;4.78;2.70;;;14.50;99.90;;;;;;4993135;28;20030;-72
2021/08/10 03:08:02;;;;;;;4.28;2.72;;;14.50;99.90;;;;;;4994596;28;20074;-72
2021/08/10 03:10:31;;;;;;;4.65;2.58;;;14.50;99.90;;;;;;4994420;28;20022;-73
2021/08/10 03:13:01;;;;;;;5.10;2.65;;;14.50;99.90;;;;;;4993201;28;20044;-71
2021/08/10 03:15:28;;;;;;;3.70;2.53;;;14.50;99.90;;;;;;4994171;28;20372;-72
2021/08/10 03:17:58;;;;;;;5.03;3.30;;;14.40;99.90;;;;;;4994278;28;20117;-72
2021/08/10 03:20:25;;;;;;;4.20;3.03;;;14.30;99.90;;;;;;4994194;28;20029;-73
2021/08/10 03:22:52;;;;;;;6.88;2.65;;;14.30;99.90;;;;;;4992892;28;20022;-73
2021/08/10 03:25:19;;;;;;;4.22;2.78;;;14.30;99.90;;;;;;4992813;28;20463;-72
2021/08/10 03:27:46;;;;;;;7.03;3.28;;;14.40;99.90;;;;;;4993942;28;20034;-72
2021/08/10 03:30:13;;;;;;;3.72;2.60;;;14.30;99.90;;;;;;4993932;28;20085;-72
2021/08/10 03:32:40;;;;;;;4.47;2.72;;;14.30;99.90;;;;;;4992637;28;20028;-71
2021/08/10 03:35:06;;;;;;;3.88;2.55;;;14.40;99.90;;;;;;4992441;28;20574;-72
2021/08/10 03:37:33;;;;;;;7.25;3.03;;;14.40;99.90;;;;;;4992378;28;20041;-73
2021/08/10 03:40:01;;;;;;;4.88;2.80;;;14.30;99.90;;;;;;4993819;28;20033;-72
2021/08/10 03:42:27;;;;;;;6.95;3.20;;;14.30;99.90;;;;;;4992485;28;20113;-72
2021/08/10 03:44:53;;;;;;;3.67;2.58;;;14.30;99.90;;;;;;4993876;28;20482;-72
2021/08/10 03:47:19;;;;;;;5.40;2.80;;;14.30;99.90;;;;;;4992180;28;20023;-72
2021/08/10 03:49:46;;;;;;;4.00;3.13;;;14.20;99.90;;;;;;4993548;28;20482;-72
2021/08/10 03:52:14;;;;;;;8.38;2.90;;;14.20;99.90;;;;;;4993572;28;20482;-71
2021/08/10 03:54:41;;;;;;;5.47;3.03;;;14.20;99.90;;;;;;4993453;28;20110;-73
2021/08/10 03:57:12;;;;;;;5.63;2.72;;;14.20;99.90;;;;;;4992458;28;20402;-73
2021/08/10 03:59:38;;;;;;;;;;;14.20;99.90;;;;;;4993677;28;20018;-73
2021/08/10 04:02:04;;;;;;;5.55;3.20;;;14.20;99.90;;;;;;4992237;28;20322;-72
2021/08/10 04:04:30;;;;;;;7.32;3.35;;;14.10;99.90;;;;;;4993355;28;20018;-72
2021/08/10 04:06:57;;;;;;;7.13;3.05;;;14.10;99.90;;;;;;4993244;28;20026;-72
2021/08/10 04:09:23;;;;;;;6.53;3.50;;;14.10;99.90;;;;;;4991876;28;20034;-70
2021/08/10 04:11:49;;;;;;;4.50;2.95;;;14.20;99.90;;;;;;4993066;28;20026;-72
2021/08/10 04:14:16;;;;;;;9.10;3.10;;;14.20;99.90;;;;;;4993282;28;20467;-72
2021/08/10 04:16:54;;;;;;;7.47;3.65;;;14.30;99.90;;;;;;4991622;28;20042;-71
2021/08/10 04:19:23;;;;;;;4.78;3.15;;;14.30;99.90;;;;;;4992976;28;20024;-72
2021/08/10 04:21:49;;;;;;;14.05;3.95;;;14.40;99.90;;;;;;4992910;28;20038;-73
2021/08/10 04:24:14;;;;;;;9.25;3.20;;;14.40;99.90;;;;;;4993168;28;20022;-72
2021/08/10 04:26:40;;;;;;;5.47;2.97;;;14.50;99.90;;;;;;4992800;28;20041;-73
2021/08/10 04:29:05;;;;;;;6.60;3.08;;;14.50;99.90;;;;;;4993057;28;20026;-72
2021/08/10 04:31:31;;;;;;;5.40;3.50;;;14.60;99.90;;;;;;4992993;28;20026;-71
2021/08/10 04:33:57;;;;;;;3.90;2.80;;;14.70;99.90;;;;;;4992387;28;20418;-72
2021/08/10 04:36:22;;;;;;;4.50;2.80;;;14.80;99.90;;;;;;4992643;28;20101;-72
2021/08/10 04:38:48;;;;;;;4.50;2.85;;;14.90;99.90;;;;;;4992699;28;20475;-71
2021/08/10 04:41:13;;;;;;;4.97;3.13;;;14.90;99.90;;;;;;4992698;28;20027;-72
2021/08/10 04:43:39;;;;;;;4.43;3.03;;;15.00;99.90;;;;;;4992731;28;20037;-71
2021/08/10 04:46:04;;;;;;;7.07;2.95;;;15.10;99.90;;;;;;4992642;28;20034;-72
2021/08/10 04:48:30;;;;;;;6.55;3.38;;;15.10;99.90;;;;;;4992503;28;20053;-72
2021/08/10 04:50:55;;;;;;;3.70;2.83;;;15.20;99.90;;;;;;4992456;28;20505;-73
2021/08/10 04:53:21;;;;;;;6.60;2.95;;;15.30;99.90;;;;;;4991137;28;20038;-73
2021/08/10 04:55:47;;;;;;;8.05;3.00;;;15.40;99.90;;;;;;4991161;28;20030;-72
2021/08/10 04:58:12;;;;;;;6.93;3.42;;;15.30;99.90;;;;;;4992363;28;20027;-71
2021/08/10 05:00:38;;;;;;;10.20;3.33;;;15.30;99.90;;;;;;4992490;28;20029;-73
2021/08/10 05:03:04;;;;;;;5.60;2.85;;;15.20;99.90;;;;;;4991195;28;20141;-72
2021/08/10 05:05:29;;;;;;;9.00;3.30;;;15.20;99.90;;;;;;4990998;28;20033;-73
2021/08/10 05:07:55;;;;;;;8.52;4.10;;;15.30;99.90;;;;;;4991995;28;20038;-73
2021/08/10 05:10:20;;;;;;;15.18;4.20;;;15.40;99.90;;;;;;4992148;28;20026;-71
2021/08/10 05:12:46;;;;;;;7.60;3.40;;;15.50;99.90;;;;;;4992290;28;20069;-71
2021/08/10 05:15:11;;;;;;;9.00;3.30;;;15.70;99.90;;;;;;4992266;28;20030;-71
2021/08/10 05:17:37;;;;;;;6.05;2.75;;;15.70;99.90;;;;;;4990694;28;20046;-72
2021/08/10 05:20:03;;;;;;;5.30;2.97;;;15.60;99.90;;;;;;4992336;28;20026;-72
2021/08/10 05:22:29;;;;;;;9.10;2.90;;;15.70;99.90;;;;;;4992235;28;20019;-72
2021/08/10 05:24:54;;;;;;;7.28;3.67;;;15.80;99.90;;;;;;4990867;28;20383;-72
2021/08/10 05:27:20;;;;;;;8.15;3.33;;;15.80;99.90;;;;;;4992130;28;20033;-72
2021/08/10 05:29:46;;;;;;;5.70;3.38;;;15.90;99.90;;;;;;4992014;28;20397;-72
2021/08/10 05:32:11;;;;;;;10.50;4.32;;;15.90;99.90;;;;;;4990814;28;20027;-72
2021/08/10 05:34:38;;;;;;;7.63;3.30;;;16.00;99.90;;;;;;4992123;28;20573;-71
2021/08/10 05:37:04;;;;;;;4.82;3.00;;;16.10;99.90;;;;;;4990633;28;20026;-72
2021/08/10 05:39:30;;;;;;;3.90;2.97;;;15.90;99.90;;;;;;4992039;28;20018;-72
2021/08/10 05:41:55;;;;;;;5.57;3.20;;;15.90;99.90;;;;;;4990776;28;20022;-72
2021/08/10 05:44:21;;;;;;;6.28;3.13;;;16.10;99.90;;;;;;4992196;28;20163;-73
2021/08/10 05:46:47;;;;;;;9.23;3.20;;;16.20;99.90;;;;;;4994026;28;20027;-72
2021/08/10 05:49:13;;;;;;;5.30;3.08;;;16.40;99.90;;;;;;4995845;28;20052;-72
2021/08/10 05:51:38;;;;;;;6.95;2.72;;;16.60;99.90;;;;;;4995748;28;20030;-72
2021/08/10 05:54:04;;;;;;;3.85;3.17;;;16.70;99.90;;;;;;4995763;28;20403;-74
2021/08/10 05:56:30;;;;;;;8.48;2.92;;;16.90;99.90;;;;;;4995634;28;20101;-71
2021/08/10 05:58:55;;;;;;;5.25;3.10;;;16.90;99.90;;;;;;4995606;28;20029;-74
2021/08/10 06:01:21;;;;;;;9.38;3.10;;;16.80;99.90;;;;;;4995564;28;20022;-71
2021/08/10 06:03:46;;;;;;;14.77;4.20;;;16.90;99.90;;;;;;4995474;28;20033;-72
2021/08/10 06:06:12;;;;;;;4.72;2.88;;;17.10;99.90;;;;;;4994201;28;20390;-72
2021/08/10 06:08:37;;;;;;;8.32;3.28;;;17.10;99.90;;;;;;4995599;28;20499;-76
2021/08/10 06:11:03;;;;;;;12.65;3.58;;;17.00;99.90;;;;;;4995500;28;20042;-72
2021/08/10 06:13:28;;;;;;;8.50;3.03;;;17.10;99.90;;;;;;4994077;28;20027;-74
2021/08/10 06:15:54;;;;;;;5.95;3.08;;;17.30;99.90;;;;;;4993957;28;20041;-72
2021/08/10 06:18:20;;;;;;;7.93;2.67;;;17.30;99.90;;;;;;4995226;28;20041;-71
2021/08/10 06:20:46;;;;;;;4.05;2.22;;;17.60;99.90;;;;;;4995375;28;20285;-73
2021/08/10 06:23:12;;;;;;;7.85;3.20;;;17.70;99.90;;;;;;4995256;28;20371;-72
2021/08/10 06:25:37;;;;;;;5.82;2.65;;;17.80;99.90;;;;;;4993872;28;20019;-72
2021/08/10 06:28:03;;;;;;;6.65;2.50;;;17.80;99.90;;;;;;4993754;28;20022;-72
2021/08/10 06:30:29;;;;;;;3.03;2.70;;;17.70;99.90;;;;;;4995002;28;20390;-71
2021/08/10 06:32:54;;;;;;;3.90;3.03;;;18.00;99.90;;;;;;4995025;28;20034;-72
2021/08/10 06:35:20;;;;;;;8.20;2.80;;;18.20;99.90;;;;;;4994894;28;20034;-72
2021/08/10 06:37:45;;;;;;;6.97;2.83;;;18.20;99.90;;;;;;4993533;28;20034;-72
2021/08/10 06:40:11;;;;;;;10.82;3.20;;;18.20;99.90;;;;;;4995080;28;20521;-73
2021/08/10 06:42:37;;;;;;;7.05;2.88;;;18.20;99.90;;;;;;4994847;28;20031;-72
2021/08/10 06:45:03;;;;;;;5.55;2.92;;;18.50;99.90;;;;;;4993712;28;20026;-71
2021/08/10 06:47:28;;;;;;;3.75;2.58;;;18.60;99.90;;;;;;4994777;28;20030;-74
2021/08/10 06:49:54;;;;;;;6.35;2.58;;;18.80;99.90;;;;;;4994594;28;20161;-73
2021/08/10 06:52:20;;;;;;;3.67;2.55;;;18.90;99.90;;;;;;4993393;28;20486;-72
2021/08/10 06:54:45;;;;;;;4.40;2.13;;;19.20;99.90;;;;;;4994452;28;20062;-72
2021/08/10 06:57:11;;;;;;;4.82;2.28;;;19.30;99.90;;;;;;4993935;28;20026;-72
2021/08/10 06:59:37;;;;;;;7.45;2.70;;;19.20;99.90;;;;;;4992962;28;20023;-73
2021/08/10 07:02:04;;;;;;;3.00;1.90;;;19.30;99.90;;;;;;4994415;28;20026;-71
2021/08/10 07:04:30;;;;;;;6.88;2.30;;;19.50;99.90;;;;;;4994382;28;20044;-72
2021/08/10 07:06:55;;;;;;;5.50;2.38;;;20.10;99.90;;;;;;4994030;28;20026;-72
2021/08/10 07:09:22;;;;;;;5.22;2.30;;;20.50;99.90;;;;;;4994366;28;20026;-73
2021/08/10 07:11:48;;;;;;;5.40;2.55;;;20.50;99.90;;;;;;4993201;28;20371;-72
2021/08/10 07:14:14;;;;;;;5.03;2.40;;;20.50;99.90;;;;;;4994157;28;20027;-71
2021/08/10 07:16:41;;;;;;;4.78;2.45;;;20.10;99.90;;;;;;4992681;28;20045;-74
2021/08/10 07:19:07;;;;;;;10.30;3.90;;;20.40;99.90;;;;;;4994128;28;20026;-72
2021/08/10 07:21:33;;;;;;;5.80;2.30;;;20.60;99.90;;;;;;4992719;28;20018;-72
2021/08/10 07:23:58;;;;;;;6.10;2.08;;;20.70;99.90;;;;;;4993792;28;20023;-73
2021/08/10 07:26:24;;;;;;;4.88;2.50;;;20.70;99.90;;;;;;4993911;28;20022;-71
2021/08/10 07:28:50;;;;;;;7.38;2.53;;;20.40;99.90;;;;;;4992634;28;20085;-72
2021/08/10 07:31:16;;;;;;;11.07;3.35;;;19.80;99.90;;;;;;4992530;28;20031;-72
2021/08/10 07:33:41;;;;;;;5.22;2.47;;;19.70;99.90;;;;;;4993945;28;20023;-73
2021/08/10 07:36:07;;;;;;;6.68;2.70;;;19.80;99.90;;;;;;4994033;28;20033;-73
2021/08/10 07:38:32;;;;;;;6.43;2.90;;;20.10;99.90;;;;;;4993522;28;20030;-72
2021/08/10 07:40:58;;;;;;;6.32;2.40;;;20.30;99.90;;;;;;4993751;28;20474;-72
2021/08/10 07:43:24;;;;;;;5.10;2.08;;;20.20;99.90;;;;;;4994027;28;20031;-73
2021/08/10 07:45:49;;;;;;;14.43;4.35;;;20.20;99.90;;;;;;4993545;28;20018;-73
2021/08/10 07:48:16;;;;;;;8.00;3.20;;;20.50;99.90;;;;;;4993252;28;20482;-71
2021/08/10 07:50:42;;;;;;;5.95;2.65;;;20.70;99.90;;;;;;4992256;28;20118;-72
2021/08/10 07:53:07;;;;;;;7.07;3.03;;;20.60;99.90;;;;;;4993945;28;20443;-72
2021/08/10 07:55:35;;;;;;;5.40;3.03;;;20.60;99.90;;;;;;4991889;28;20069;-72
2021/08/10 07:58:00;;;;;;;9.40;3.88;;;21.00;99.90;;;;;;4993203;28;20114;-73
2021/08/10 08:00:26;;;;;;;6.47;2.65;;;21.10;99.90;;;;;;4993761;28;20494;-73
2021/08/10 08:02:51;;;;;;;5.93;2.70;;;20.90;99.90;;;;;;4993458;28;20022;-72
2021/08/10 08:05:17;;;;;;;7.97;3.25;;;20.70;99.90;;;;;;4993391;28;20027;-73
2021/08/10 08:07:43;;;;;;;3.72;2.70;;;20.70;99.90;;;;;;4993118;28;20026;-72
2021/08/10 08:10:09;;;;;;;5.82;2.78;;;21.30;99.90;;;;;;4991110;28;20081;-74
2021/08/10 08:12:35;;;;;;;4.70;2.58;;;21.70;99.90;;;;;;4993405;28;20033;-74
2021/08/10 08:15:01;;;;;;;4.47;2.53;;;21.70;99.90;;;;;;4993215;28;20026;-72
2021/08/10 08:17:26;;;;;;;4.53;3.05;;;21.80;99.90;;;;;;4992947;28;20402;-72
2021/08/10 08:19:52;;;;;;;6.50;2.80;;;22.20;99.90;;;;;;4993054;28;20061;-71
2021/08/10 08:22:17;;;;;;;8.32;3.00;;;22.30;99.90;;;;;;4993049;28;20038;-73
2021/08/10 08:24:43;;;;;;;10.60;3.38;;;22.40;99.90;;;;;;4992952;28;20033;-73
2021/08/10 08:27:08;;;;;;;7.78;3.33;;;22.40;99.90;;;;;;4992794;28;20026;-72
2021/08/10 08:29:34;;;;;;;8.40;3.08;;;22.40;99.90;;;;;;4992925;28;20038;-73
2021/08/10 08:31:59;;;;;;;4.53;2.30;;;22.70;99.90;;;;;;4991511;28;20034;-73
2021/08/10 08:34:25;;;;;;;4.60;2.90;;;22.90;99.90;;;;;;4992682;28;20026;-72
2021/08/10 08:36:50;;;;;;;10.27;3.20;;;23.10;99.90;;;;;;4991415;28;20033;-75
2021/08/10 08:39:16;;;;;;;3.97;2.72;;;23.10;99.90;;;;;;4991494;28;20112;-72
2021/08/10 08:41:45;;;;;;;5.82;2.80;;;23.20;99.90;;;;;;4992571;28;20033;-73
2021/08/10 08:44:10;;;;;;;2.58;2.35;;;23.10;99.90;;;;;;4992747;28;20165;-73
2021/08/10 08:46:37;;;;;;;4.47;2.65;;;23.10;99.90;;;;;;4992492;28;20061;-73
2021/08/10 08:49:06;;;;;;;4.10;3.13;;;23.40;99.90;;;;;;4991270;28;20026;-73
2021/08/10 08:51:33;;;;;;;8.38;2.78;;;23.50;99.90;;;;;;4991325;28;20083;-72
2021/08/10 08:53:59;;;;;;;6.10;1.75;;;23.10;99.90;;;;;;4992568;28;20057;-75
2021/08/10 08:56:25;;;;;;;4.35;1.85;;;23.30;99.90;;;;;;4992318;28;20034;-72
2021/08/10 08:58:55;;;;;;;4.70;1.80;;;23.30;99.90;;;;;;4991449;28;20073;-72
2021/08/10 09:01:21;;;;;;;8.93;1.85;;;23.20;99.90;;;;;;4991211;28;20054;-74
2021/08/10 09:03:47;;;;;;;3.78;2.15;;;23.90;99.90;;;;;;4991115;28;20060;-75
2021/08/10 09:06:12;;;;;;;2.33;1.88;;;24.30;99.90;;;;;;4992337;28;20685;-72
2021/08/10 09:08:40;;;;;;;3.20;2.15;;;24.10;99.90;;;;;;4991187;28;20466;-73
2021/08/10 09:11:08;;;;;;;3.67;2.30;;;23.70;99.90;;;;;;4992656;28;20434;-73
2021/08/10 09:13:37;;;;;;;5.40;1.80;;;23.50;99.90;;;;;;4992515;28;20490;-72
2021/08/10 09:16:05;;;;;;;3.97;2.08;;;23.40;99.90;;;;;;4992188;28;20034;-73
2021/08/10 09:18:37;;;;;;;3.03;1.80;;;23.50;99.90;;;;;;4990947;28;20034;-72
2021/08/10 09:21:09;;;;;;;7.65;2.10;;;23.50;99.90;;;;;;4994592;28;20021;-73
2021/08/10 09:23:37;;;;;;;2.40;2.20;;;23.40;99.90;;;;;;4996421;28;20023;-73
2021/08/10 09:26:02;;;;;;;8.75;2.05;;;23.60;99.90;;;;;;4995935;28;20049;-74
2021/08/10 09:28:33;;;;;;;2.42;1.73;;;23.50;99.90;;;;;;4995186;28;20058;-73
2021/08/10 09:31:46;;;;;;;2.75;1.60;;;23.60;99.90;;;;;;4996230;28;20022;-73
2021/08/10 09:34:28;;;;;;;4.22;1.80;;;23.50;99.90;;;;;;4993381;28;20030;-72
2021/08/10 09:36:54;;;;;;;7.28;1.80;;;23.50;99.90;;;;;;4995947;28;20069;-73
2021/08/10 09:39:34;;;;;;;4.07;1.30;;;23.60;99.90;;;;;;4996051;28;20029;-73
2021/08/10 09:42:04;;;;;;;4.10;2.75;;;23.80;99.90;;;;;;4995935;28;20034;-73
2021/08/10 09:44:30;;;;;;;3.13;2.57;;;23.90;99.90;;;;;;4994781;28;20098;-73
2021/08/10 09:46:56;;;;;;;1.90;1.48;;;23.70;99.90;;;;;;4995783;28;20047;-73
2021/08/10 09:49:23;;;;;;;3.58;1.40;;;23.80;99.90;;;;;;4995841;28;20033;-74
2021/08/10 09:51:51;;;;;;;4.63;1.65;;;24.20;99.90;;;;;;4995787;28;20497;-73
2021/08/10 09:54:18;;;;;;;5.05;1.60;;;24.40;99.90;;;;;;4995717;28;20394;-73
2021/08/10 09:56:50;;;;;;;3.20;2.03;;;24.50;99.90;;;;;;4995368;28;20030;-73
2021/08/10 09:59:18;;;;;;;4.00;2.33;;;24.60;99.90;;;;;;4995570;28;20030;-74
2021/08/10 10:01:46;;;;;;;3.92;2.13;;;24.50;99.90;;;;;;4994226;28;20474;-73
2021/08/10 10:04:26;;;;;;;8.13;2.20;;;24.40;99.90;;;;;;4995486;28;20031;-72
2021/08/10 10:06:55;;;;;;;2.95;1.75;;;24.50;99.90;;;;;;4995549;28;20038;-73
2021/08/10 10:09:25;;;;;;;3.45;2.00;;;24.50;99.90;;;;;;4994263;28;20034;-73
2021/08/10 10:11:53;;;;;;;4.35;1.63;;;24.50;99.90;;;;;;4994126;28;20042;-72
2021/08/10 10:14:24;;;;;;;4.60;2.38;;;24.40;99.90;;;;;;4995408;28;20088;-72
2021/08/10 10:16:51;;;;;;;2.58;1.65;;;24.40;99.90;;;;;;4995280;28;20045;-74
2021/08/10 10:19:19;;;;;;;5.45;2.13;;;24.50;99.90;;;;;;4995276;28;20617;-75
2021/08/10 10:21:55;;;;;;;4.38;1.98;;;24.50;99.90;;;;;;4995258;28;20390;-73
2021/08/10 10:24:22;;;;;;;3.00;1.60;;;24.60;99.90;;;;;;4995286;28;20060;-72
2021/08/10 10:27:03;;;;;;;4.38;1.77;;;24.50;99.90;;;;;;4995014;28;20030;-72
2021/08/10 10:29:29;;;;;;;2.65;1.60;;;24.50;99.90;;;;;;4995000;28;20081;-72
2021/08/10 10:31:55;;;;;;;12.45;3.05;;;24.80;99.90;;;;;;4994373;28;20030;-72
2021/08/10 10:34:21;;;;;;;3.80;1.20;;;24.40;99.90;;;;;;4994944;28;20044;-73
2021/08/10 10:36:48;;;;;;;5.35;1.25;;;24.10;99.90;;;;;;4993513;28;20023;-73
2021/08/10 10:39:23;;;;;;;2.83;1.75;;;24.10;99.90;;;;;;4994825;28;20030;-73
2021/08/10 10:41:53;;;;;;;1.15;0.93;;;24.30;99.90;;;;;;4994920;28;20498;-72
2021/08/10 10:44:42;;;;;;;2.72;1.23;;;24.30;98.80;;;;;;4993653;28;20037;-73
2021/08/10 10:47:23;;;;;;;1.48;1.02;;;24.40;98.50;;;;;;4994779;28;20032;-72
2021/08/10 10:49:52;;;;;;;;;;;24.30;98.50;;;;;;4995219;28;20033;-72
2021/08/10 10:52:18;;;;;;;2.03;0.95;;;24.50;98.80;;;;;;4993290;28;19906;-72
2021/08/10 10:54:45;;;;;;;1.42;1.23;;;24.50;98.00;;;;;;4994549;28;20085;-74
2021/08/10 10:57:28;;;;;;;2.08;1.02;;;24.60;98.60;;;;;;4994482;28;20042;-73
2021/08/10 10:59:58;;;;;;;2.80;1.15;;;25.00;98.50;;;;;;4994769;28;20022;-73
2021/08/10 11:02:26;;;;;;;5.30;1.20;;;25.30;98.30;;;;;;4994949;28;20081;-72
2021/08/10 11:05:07;;;;;;;2.03;1.38;;;25.60;97.70;;;;;;4993464;28;20027;-72
2021/08/10 11:07:39;;;;;;;3.13;1.00;;;25.40;97.30;;;;;;4994422;28;20027;-72
2021/08/10 11:10:10;;;;;;;1.70;1.02;;;25.30;97.60;;;;;;4994317;28;20023;-73
2021/08/10 11:12:46;;;;;;;4.65;1.13;;;25.30;97.70;;;;;;4992956;28;20019;-73
2021/08/10 11:15:18;;;;;;;2.67;1.10;;;25.10;96.90;;;;;;4994337;28;20049;-72
2021/08/10 11:18:08;;;;;;;4.32;1.00;;;24.90;97.60;;;;;;4992752;28;20030;-73
2021/08/10 11:20:36;;;;;;;3.55;1.45;;;25.00;97.90;;;;;;4994278;28;20026;-73
2021/08/10 11:23:24;;;;;;;3.85;1.30;;;25.00;97.20;;;;;;4992878;28;20154;-73
2021/08/10 11:25:51;;;;;;;2.50;1.13;;;25.30;97.10;;;;;;4994041;28;20478;-73
2021/08/10 11:28:31;;;;;;;2.63;1.30;;;25.00;97.50;;;;;;4992771;28;20033;-73
2021/08/10 11:31:04;;;;;;;3.20;1.00;;;24.90;97.10;;;;;;4994141;28;20033;-75
2021/08/10 11:33:30;;;;;;;2.42;1.13;;;25.00;97.90;;;;;;4994125;28;20133;-74
2021/08/10 11:36:14;;;;;;;1.85;1.10;;;25.10;97.80;;;;;;4994137;28;20522;-74
2021/08/10 11:38:51;;;;;;;6.03;1.20;;;25.50;96.70;;;;;;4993679;28;20394;-72
2021/08/10 11:41:28;;;;;;;2.83;1.65;;;25.70;96.30;;;;;;4992605;28;20030;-73
2021/08/10 11:44:03;;;;;;;1.73;1.10;;;25.50;96.30;;;;;;4993781;28;20123;-72
2021/08/10 11:46:37;;;;;;;2.25;1.17;;;25.40;96.70;;;;;;4992132;28;20022;-73
2021/08/10 11:49:07;;;;;;;1.88;1.00;;;25.50;97.10;;;;;;4993624;28;20109;-73
2021/08/10 11:51:39;;;;;;;1.52;0.77;;;25.40;97.50;;;;;;4993777;28;20037;-72
2021/08/10 11:54:13;;;;;;;1.90;0.93;;;25.80;96.00;;;;;;4993671;28;20023;-73
2021/08/10 11:56:55;;;;;;;3.58;1.20;;;25.30;95.60;;;;;;4993239;28;20033;-73
2021/08/10 11:59:25;;;;;;;2.65;1.00;;;25.10;96.00;;;;;;4992427;28;20068;-73
2021/08/10 12:01:51;;;;;;;1.17;0.80;;;25.40;96.00;;;;;;4992155;28;20022;-72
2021/08/10 12:04:19;;;;;;;1.92;0.90;;;25.00;95.90;;;;;;4993531;28;20045;-75
2021/08/10 12:06:49;;;;;;;3.42;1.20;;;25.00;96.60;;;;;;4993271;28;20029;-74
2021/08/10 12:09:27;;;;;;;;;;;25.50;96.30;;;;;;4993699;28;20121;-71
2021/08/10 12:11:57;;;;;;;2.13;1.40;;;26.30;95.70;;;;;;4993284;28;19912;-73
2021/08/10 12:14:28;;;;;;;3.53;1.10;;;26.30;95.90;;;;;;4993048;28;20145;-72
2021/08/10 12:17:10;;;;;;;6.72;1.48;;;26.00;96.60;;;;;;4992771;28;20084;-73
2021/08/10 12:19:41;;;;;;;1.75;1.30;;;26.00;96.50;;;;;;4992960;28;20034;-72
2021/08/10 12:22:18;;;;;;;3.25;1.50;;;26.40;96.80;;;;;;4992842;28;20023;-72
2021/08/10 12:24:44;;;;;;;2.17;1.38;;;26.60;95.60;;;;;;4993166;28;20026;-74
2021/08/10 12:27:11;;;;;;;3.20;1.08;;;26.40;94.40;;;;;;4991628;28;20022;-74
2021/08/10 12:29:45;;;;;;;3.50;1.67;;;25.70;95.10;;;;;;4993032;28;20118;-73
2021/08/10 12:32:22;;;;;;;3.47;2.08;;;25.20;95.80;;;;;;4993115;28;20403;-73
2021/08/10 12:34:48;;;;;;;4.60;1.88;;;25.00;96.50;;;;;;4991392;28;20034;-73
2021/08/10 12:37:14;;;;;;;7.28;1.40;;;25.40;96.60;;;;;;4991506;28;20030;-73
2021/08/10 12:39:44;;;;;;;4.20;1.63;;;25.90;95.80;;;;;;4991474;28;20026;-73
2021/08/10 12:42:11;;;;;;;;;;;26.20;95.50;;;;;;4992024;28;20030;-74
2021/08/10 12:44:38;;;;;;;3.35;1.40;;;25.90;96.00;;;;;;4991453;28;19957;-73
2021/08/10 12:47:06;;;;;;;4.75;1.50;;;25.70;96.60;;;;;;4991041;28;20123;-73
2021/08/10 12:49:40;;;;;;;4.03;1.55;;;25.90;96.70;;;;;;4992695;28;20022;-73
2021/08/10 12:52:12;;;;;;;4.95;1.40;;;25.50;96.00;;;;;;4991132;28;20490;-73
2021/08/10 12:54:57;;;;;;;3.30;1.58;;;25.60;96.40;;;;;;4992927;28;20395;-72